sensor_id;sensor_type;location;lat;lon;timestamp;pressure;altitude;pressure_sealevel;temperature;humidity
52693;BME280;68218;51.012;-1.648;2023-03-03T00:01:18;101747.91;;;1.38;79.18
52693;BME280;68218;51.012;-1.648;2023-03-03T00:03:44;101748.75;;;1.38;79.07
52693;BME280;68218;51.012;-1.648;2023-03-03T00:06:12;101758.56;;;1.46;78.58
52693;BME280;68218;51.012;-1.648;2023-03-03T00:08:38;101747.56;;;1.49;78.54
52693;BME280;68218;51.012;-1.648;2023-03-03T00:11:03;101752.41;;;1.45;78.79
52693;BME280;68218;51.012;-1.648;2023-03-03T00:13:31;101756.88;;;1.45;78.83
52693;BME280;68218;51.012;-1.648;2023-03-03T00:16:31;101758.22;;;1.41;78.90
52693;BME280;68218;51.012;-1.648;2023-03-03T00:18:56;101761.69;;;1.41;79.14
52693;BME280;68218;51.012;-1.648;2023-03-03T00:21:23;101766.19;;;1.41;78.95
52693;BME280;68218;51.012;-1.648;2023-03-03T00:23:50;101765.50;;;1.39;79.20
52693;BME280;68218;51.012;-1.648;2023-03-03T00:26:35;101767.19;;;1.40;79.23
52693;BME280;68218;51.012;-1.648;2023-03-03T00:29:39;101768.50;;;1.36;79.05
52693;BME280;68218;51.012;-1.648;2023-03-03T00:34:36;101769.19;;;1.38;79.30
52693;BME280;68218;51.012;-1.648;2023-03-03T00:37:01;101771.34;;;1.34;79.75
52693;BME280;68218;51.012;-1.648;2023-03-03T00:39:33;101764.50;;;1.31;79.93
52693;BME280;68218;51.012;-1.648;2023-03-03T00:42:00;101769.16;;;1.29;80.08
52693;BME280;68218;51.012;-1.648;2023-03-03T00:50:24;101762.00;;;1.30;80.01
52693;BME280;68218;51.012;-1.648;2023-03-03T00:53:10;101754.53;;;1.25;80.49
52693;BME280;68218;51.012;-1.648;2023-03-03T00:55:36;101755.84;;;1.21;80.49
52693;BME280;68218;51.012;-1.648;2023-03-03T00:58:03;101750.19;;;1.16;80.72
52693;BME280;68218;51.012;-1.648;2023-03-03T01:00:28;101764.13;;;1.18;80.71
52693;BME280;68218;51.012;-1.648;2023-03-03T01:02:54;101763.13;;;1.11;81.02
52693;BME280;68218;51.012;-1.648;2023-03-03T01:05:21;101760.63;;;1.09;81.46
52693;BME280;68218;51.012;-1.648;2023-03-03T01:07:46;101768.75;;;1.08;81.40
52693;BME280;68218;51.012;-1.648;2023-03-03T01:10:12;101775.56;;;1.02;81.78
52693;BME280;68218;51.012;-1.648;2023-03-03T01:12:38;101778.06;;;1.04;81.85
52693;BME280;68218;51.012;-1.648;2023-03-03T01:15:08;101783.53;;;1.02;81.80
52693;BME280;68218;51.012;-1.648;2023-03-03T01:17:35;101782.72;;;1.02;81.74
52693;BME280;68218;51.012;-1.648;2023-03-03T01:20:01;101786.84;;;1.04;82.31
52693;BME280;68218;51.012;-1.648;2023-03-03T01:22:27;101790.88;;;1.08;81.94
52693;BME280;68218;51.012;-1.648;2023-03-03T01:24:52;101792.66;;;1.08;82.00
52693;BME280;68218;51.012;-1.648;2023-03-03T01:27:18;101794.84;;;1.12;81.98
52693;BME280;68218;51.012;-1.648;2023-03-03T01:29:43;101801.03;;;1.21;82.09
52693;BME280;68218;51.012;-1.648;2023-03-03T01:32:09;101797.41;;;1.30;81.79
52693;BME280;68218;51.012;-1.648;2023-03-03T01:34:34;101793.09;;;1.38;81.78
52693;BME280;68218;51.012;-1.648;2023-03-03T01:37:00;101793.63;;;1.49;81.55
52693;BME280;68218;51.012;-1.648;2023-03-03T01:39:25;101802.09;;;1.53;81.46
52693;BME280;68218;51.012;-1.648;2023-03-03T01:41:51;101810.91;;;1.62;80.98
52693;BME280;68218;51.012;-1.648;2023-03-03T01:44:16;101809.91;;;1.71;80.87
52693;BME280;68218;51.012;-1.648;2023-03-03T01:49:28;101809.94;;;1.79;80.76
52693;BME280;68218;51.012;-1.648;2023-03-03T01:52:00;101818.75;;;1.88;80.65
52693;BME280;68218;51.012;-1.648;2023-03-03T01:54:33;101809.09;;;1.95;80.01
52693;BME280;68218;51.012;-1.648;2023-03-03T01:57:04;101814.75;;;2.09;79.63
52693;BME280;68218;51.012;-1.648;2023-03-03T01:59:36;101814.91;;;2.07;79.72
52693;BME280;68218;51.012;-1.648;2023-03-03T02:02:04;101815.94;;;2.06;80.11
52693;BME280;68218;51.012;-1.648;2023-03-03T02:04:30;101817.41;;;2.09;79.85
52693;BME280;68218;51.012;-1.648;2023-03-03T02:07:01;101819.75;;;2.12;79.83
52693;BME280;68218;51.012;-1.648;2023-03-03T02:10:01;101824.06;;;2.21;79.43
52693;BME280;68218;51.012;-1.648;2023-03-03T02:12:40;101823.56;;;2.25;79.31
52693;BME280;68218;51.012;-1.648;2023-03-03T02:15:27;101820.72;;;2.27;79.05
52693;BME280;68218;51.012;-1.648;2023-03-03T02:18:00;101817.25;;;2.27;78.75
52693;BME280;68218;51.012;-1.648;2023-03-03T02:28:23;101827.53;;;2.38;78.81
52693;BME280;68218;51.012;-1.648;2023-03-03T02:30:54;101828.22;;;2.40;78.39
52693;BME280;68218;51.012;-1.648;2023-03-03T02:33:19;101821.88;;;2.41;78.41
52693;BME280;68218;51.012;-1.648;2023-03-03T02:35:45;101823.06;;;2.38;78.72
52693;BME280;68218;51.012;-1.648;2023-03-03T02:38:21;101823.06;;;2.38;78.75
52693;BME280;68218;51.012;-1.648;2023-03-03T02:41:04;101826.22;;;2.42;78.66
52693;BME280;68218;51.012;-1.648;2023-03-03T02:43:46;101835.84;;;2.43;78.64
52693;BME280;68218;51.012;-1.648;2023-03-03T02:46:15;101833.66;;;2.47;78.20
52693;BME280;68218;51.012;-1.648;2023-03-03T02:48:40;101826.69;;;2.46;78.34
52693;BME280;68218;51.012;-1.648;2023-03-03T02:51:06;101832.19;;;2.52;77.69
52693;BME280;68218;51.012;-1.648;2023-03-03T02:53:31;101830.50;;;2.51;77.26
52693;BME280;68218;51.012;-1.648;2023-03-03T02:55:57;101837.16;;;2.55;77.39
52693;BME280;68218;51.012;-1.648;2023-03-03T02:58:22;101826.53;;;2.55;77.57
52693;BME280;68218;51.012;-1.648;2023-03-03T03:00:48;101830.00;;;2.56;78.09
52693;BME280;68218;51.012;-1.648;2023-03-03T03:03:13;101835.34;;;2.56;77.89
52693;BME280;68218;51.012;-1.648;2023-03-03T03:05:39;101837.16;;;2.55;78.19
52693;BME280;68218;51.012;-1.648;2023-03-03T03:08:04;101840.00;;;2.54;77.97
52693;BME280;68218;51.012;-1.648;2023-03-03T03:10:30;101836.50;;;2.53;78.00
52693;BME280;68218;51.012;-1.648;2023-03-03T03:12:56;101842.63;;;2.62;78.01
52693;BME280;68218;51.012;-1.648;2023-03-03T03:15:21;101844.63;;;2.60;77.56
52693;BME280;68218;51.012;-1.648;2023-03-03T03:17:46;101837.50;;;2.60;77.52
52693;BME280;68218;51.012;-1.648;2023-03-03T03:20:12;101840.97;;;2.61;77.38
52693;BME280;68218;51.012;-1.648;2023-03-03T03:22:37;101840.44;;;2.66;77.52
52693;BME280;68218;51.012;-1.648;2023-03-03T03:25:03;101840.66;;;2.64;77.25
52693;BME280;68218;51.012;-1.648;2023-03-03T03:27:28;101840.28;;;2.67;77.07
52693;BME280;68218;51.012;-1.648;2023-03-03T03:29:53;101832.13;;;2.69;77.20
52693;BME280;68218;51.012;-1.648;2023-03-03T03:32:19;101830.47;;;2.68;77.60
52693;BME280;68218;51.012;-1.648;2023-03-03T03:34:44;101828.63;;;2.68;77.12
52693;BME280;68218;51.012;-1.648;2023-03-03T03:37:10;101828.13;;;2.73;77.20
52693;BME280;68218;51.012;-1.648;2023-03-03T03:39:35;101824.78;;;2.71;77.01
52693;BME280;68218;51.012;-1.648;2023-03-03T03:42:01;101824.44;;;2.74;77.15
52693;BME280;68218;51.012;-1.648;2023-03-03T03:44:26;101829.78;;;2.74;77.31
52693;BME280;68218;51.012;-1.648;2023-03-03T03:46:52;101829.94;;;2.80;76.93
52693;BME280;68218;51.012;-1.648;2023-03-03T03:49:17;101826.78;;;2.77;77.34
52693;BME280;68218;51.012;-1.648;2023-03-03T03:51:43;101825.31;;;2.74;77.27
52693;BME280;68218;51.012;-1.648;2023-03-03T03:54:08;101821.78;;;2.74;77.25
52693;BME280;68218;51.012;-1.648;2023-03-03T03:56:34;101819.97;;;2.74;77.16
52693;BME280;68218;51.012;-1.648;2023-03-03T03:58:59;101824.59;;;2.80;77.34
52693;BME280;68218;51.012;-1.648;2023-03-03T04:01:25;101822.75;;;2.81;77.08
52693;BME280;68218;51.012;-1.648;2023-03-03T04:03:50;101818.78;;;2.77;77.23
52693;BME280;68218;51.012;-1.648;2023-03-03T04:06:16;101822.97;;;2.79;77.16
52693;BME280;68218;51.012;-1.648;2023-03-03T04:08:41;101817.78;;;2.78;77.25
52693;BME280;68218;51.012;-1.648;2023-03-03T04:11:06;101818.44;;;2.80;77.28
52693;BME280;68218;51.012;-1.648;2023-03-03T04:13:32;101813.59;;;2.84;77.17
52693;BME280;68218;51.012;-1.648;2023-03-03T04:16:00;101805.31;;;2.78;77.41
52693;BME280;68218;51.012;-1.648;2023-03-03T04:18:25;101799.63;;;2.81;77.58
52693;BME280;68218;51.012;-1.648;2023-03-03T04:20:51;101807.78;;;2.80;77.57
52693;BME280;68218;51.012;-1.648;2023-03-03T04:23:18;101807.97;;;2.78;77.32
52693;BME280;68218;51.012;-1.648;2023-03-03T04:25:45;101813.94;;;2.80;77.24
52693;BME280;68218;51.012;-1.648;2023-03-03T04:28:12;101803.28;;;2.80;77.17
52693;BME280;68218;51.012;-1.648;2023-03-03T04:30:37;101801.44;;;2.81;77.51
52693;BME280;68218;51.012;-1.648;2023-03-03T04:33:03;101804.97;;;2.81;77.67
52693;BME280;68218;51.012;-1.648;2023-03-03T04:35:28;101809.94;;;2.85;77.41
52693;BME280;68218;51.012;-1.648;2023-03-03T04:37:53;101808.44;;;2.82;77.09
52693;BME280;68218;51.012;-1.648;2023-03-03T04:40:19;101812.94;;;2.81;77.15
52693;BME280;68218;51.012;-1.648;2023-03-03T04:42:44;101810.94;;;2.84;77.44
52693;BME280;68218;51.012;-1.648;2023-03-03T04:45:10;101806.78;;;2.81;77.09
52693;BME280;68218;51.012;-1.648;2023-03-03T04:47:36;101804.09;;;2.81;76.93
52693;BME280;68218;51.012;-1.648;2023-03-03T04:50:01;101815.28;;;2.85;76.48
52693;BME280;68218;51.012;-1.648;2023-03-03T04:52:27;101817.09;;;2.84;76.34
52693;BME280;68218;51.012;-1.648;2023-03-03T04:54:53;101806.25;;;2.86;76.53
52693;BME280;68218;51.012;-1.648;2023-03-03T04:57:18;101815.28;;;2.85;76.01
52693;BME280;68218;51.012;-1.648;2023-03-03T04:59:43;101817.09;;;2.84;75.90
52693;BME280;68218;51.012;-1.648;2023-03-03T05:02:09;101808.94;;;2.86;75.70
52693;BME280;68218;51.012;-1.648;2023-03-03T05:04:35;101815.28;;;2.85;75.25
52693;BME280;68218;51.012;-1.648;2023-03-03T05:07:00;101816.09;;;2.85;74.89
52693;BME280;68218;51.012;-1.648;2023-03-03T05:09:26;101810.78;;;2.85;74.87
52693;BME280;68218;51.012;-1.648;2023-03-03T05:11:52;101803.44;;;2.87;75.07
52693;BME280;68218;51.012;-1.648;2023-03-03T05:14:17;101814.91;;;2.88;75.25
52693;BME280;68218;51.012;-1.648;2023-03-03T05:16:43;101815.94;;;2.87;74.93
52693;BME280;68218;51.012;-1.648;2023-03-03T05:19:08;101816.28;;;2.84;74.89
52693;BME280;68218;51.012;-1.648;2023-03-03T05:21:33;101810.94;;;2.84;74.84
52693;BME280;68218;51.012;-1.648;2023-03-03T05:23:59;101809.94;;;2.85;74.27
52693;BME280;68218;51.012;-1.648;2023-03-03T05:26:24;101807.94;;;2.87;73.53
52693;BME280;68218;51.012;-1.648;2023-03-03T05:28:50;101809.41;;;2.89;73.84
52693;BME280;68218;51.012;-1.648;2023-03-03T05:31:15;101813.25;;;2.87;73.33
52693;BME280;68218;51.012;-1.648;2023-03-03T05:33:41;101818.44;;;2.88;73.52
52693;BME280;68218;51.012;-1.648;2023-03-03T05:36:07;101815.28;;;2.85;73.93
52693;BME280;68218;51.012;-1.648;2023-03-03T05:38:32;101812.78;;;2.83;74.30
52693;BME280;68218;51.012;-1.648;2023-03-03T05:40:57;101815.09;;;2.86;74.03
52693;BME280;68218;51.012;-1.648;2023-03-03T05:43:23;101805.63;;;2.84;74.32
52693;BME280;68218;51.012;-1.648;2023-03-03T05:45:56;101803.78;;;2.84;74.08
52693;BME280;68218;51.012;-1.648;2023-03-03T05:48:22;101802.13;;;2.83;74.00
52693;BME280;68218;51.012;-1.648;2023-03-03T05:50:48;101794.31;;;2.81;73.79
52693;BME280;68218;51.012;-1.648;2023-03-03T05:53:13;101806.59;;;2.83;73.34
52693;BME280;68218;51.012;-1.648;2023-03-03T05:55:38;101806.59;;;2.83;73.06
52693;BME280;68218;51.012;-1.648;2023-03-03T05:58:04;101805.78;;;2.82;73.06
52693;BME280;68218;51.012;-1.648;2023-03-03T06:00:29;101806.59;;;2.83;72.93
52693;BME280;68218;51.012;-1.648;2023-03-03T06:02:54;101812.94;;;2.81;73.53
52693;BME280;68218;51.012;-1.648;2023-03-03T06:05:20;101822.28;;;2.77;73.63
52693;BME280;68218;51.012;-1.648;2023-03-03T06:07:45;101820.94;;;2.81;73.43
52693;BME280;68218;51.012;-1.648;2023-03-03T06:10:11;101818.94;;;2.84;73.63
52693;BME280;68218;51.012;-1.648;2023-03-03T06:12:36;101822.59;;;2.83;73.40
52693;BME280;68218;51.012;-1.648;2023-03-03T06:15:04;101816.91;;;2.86;73.25
52693;BME280;68218;51.012;-1.648;2023-03-03T06:17:29;101823.44;;;2.83;73.29
52693;BME280;68218;51.012;-1.648;2023-03-03T06:19:55;101825.41;;;2.89;72.68
52693;BME280;68218;51.012;-1.648;2023-03-03T06:22:20;101823.75;;;2.88;73.27
52693;BME280;68218;51.012;-1.648;2023-03-03T06:24:45;101821.59;;;2.84;73.57
52693;BME280;68218;51.012;-1.648;2023-03-03T06:27:11;101819.28;;;2.80;72.83
52693;BME280;68218;51.012;-1.648;2023-03-03T06:29:36;101820.63;;;2.76;73.29
52693;BME280;68218;51.012;-1.648;2023-03-03T06:32:02;101828.28;;;2.79;73.00
52693;BME280;68218;51.012;-1.648;2023-03-03T06:34:27;101830.25;;;2.77;73.03
52693;BME280;68218;51.012;-1.648;2023-03-03T06:36:52;101820.94;;;2.81;73.05
52693;BME280;68218;51.012;-1.648;2023-03-03T06:39:18;101833.63;;;2.79;72.97
52693;BME280;68218;51.012;-1.648;2023-03-03T06:41:43;101829.94;;;2.80;72.89
52693;BME280;68218;51.012;-1.648;2023-03-03T06:44:09;101831.59;;;2.81;72.95
52693;BME280;68218;51.012;-1.648;2023-03-03T06:46:36;101842.91;;;2.84;72.56
52693;BME280;68218;51.012;-1.648;2023-03-03T06:49:01;101836.91;;;2.90;71.60
52693;BME280;68218;51.012;-1.648;2023-03-03T06:51:32;101835.88;;;2.91;72.28
52693;BME280;68218;51.012;-1.648;2023-03-03T06:54:04;101839.56;;;2.90;72.22
52693;BME280;68218;51.012;-1.648;2023-03-03T06:56:34;101847.38;;;2.91;71.89
52693;BME280;68218;51.012;-1.648;2023-03-03T06:59:01;101839.19;;;2.93;71.57
52693;BME280;68218;51.012;-1.648;2023-03-03T07:01:34;101846.88;;;2.96;71.49
52693;BME280;68218;51.012;-1.648;2023-03-03T07:04:00;101845.88;;;2.97;71.40
52693;BME280;68218;51.012;-1.648;2023-03-03T07:06:26;101852.69;;;2.99;71.92
52693;BME280;68218;51.012;-1.648;2023-03-03T07:08:53;101856.53;;;2.97;71.53
52693;BME280;68218;51.012;-1.648;2023-03-03T07:11:21;101846.34;;;3.00;71.36
52693;BME280;68218;51.012;-1.648;2023-03-03T07:13:52;101859.16;;;3.05;71.63
52693;BME280;68218;51.012;-1.648;2023-03-03T07:16:19;101849.66;;;3.11;70.99
52693;BME280;68218;51.012;-1.648;2023-03-03T07:18:54;101847.78;;;3.19;70.85
52693;BME280;68218;51.012;-1.648;2023-03-03T07:21:22;101859.22;;;3.28;70.33
52693;BME280;68218;51.012;-1.648;2023-03-03T07:23:51;101856.03;;;3.33;69.64
52693;BME280;68218;51.012;-1.648;2023-03-03T07:26:31;101867.19;;;3.36;69.54
52693;BME280;68218;51.012;-1.648;2023-03-03T07:31:34;101872.97;;;3.48;69.39
52693;BME280;68218;51.012;-1.648;2023-03-03T07:34:00;101872.63;;;3.51;69.86
52693;BME280;68218;51.012;-1.648;2023-03-03T07:36:36;101868.84;;;3.37;69.57
52693;BME280;68218;51.012;-1.648;2023-03-03T07:41:50;101878.66;;;3.45;70.03
52693;BME280;68218;51.012;-1.648;2023-03-03T07:44:36;101883.97;;;3.45;69.85
52693;BME280;68218;51.012;-1.648;2023-03-03T07:47:26;101880.81;;;3.50;68.58
52693;BME280;68218;51.012;-1.648;2023-03-03T07:49:56;101892.94;;;3.52;68.56
52693;BME280;68218;51.012;-1.648;2023-03-03T07:52:29;101888.63;;;3.51;67.77
52693;BME280;68218;51.012;-1.648;2023-03-03T07:54:58;101898.06;;;3.62;67.97
52693;BME280;68218;51.012;-1.648;2023-03-03T07:57:28;101907.19;;;3.68;67.14
52693;BME280;68218;51.012;-1.648;2023-03-03T08:00:08;101907.16;;;3.76;67.35
52693;BME280;68218;51.012;-1.648;2023-03-03T08:03:02;101906.19;;;3.69;67.60
52693;BME280;68218;51.012;-1.648;2023-03-03T08:05:55;101916.84;;;3.77;67.56
52693;BME280;68218;51.012;-1.648;2023-03-03T08:08:32;101908.31;;;4.05;66.92
52693;BME280;68218;51.012;-1.648;2023-03-03T08:11:02;101899.75;;;4.32;66.34
52693;BME280;68218;51.012;-1.648;2023-03-03T08:18:36;101915.19;;;4.22;65.73
52693;BME280;68218;51.012;-1.648;2023-03-03T08:21:20;101917.34;;;4.27;66.04
52693;BME280;68218;51.012;-1.648;2023-03-03T08:23:45;101919.31;;;4.25;65.84
52693;BME280;68218;51.012;-1.648;2023-03-03T08:26:13;101918.69;;;4.46;66.25
52693;BME280;68218;51.012;-1.648;2023-03-03T08:28:39;101920.28;;;4.32;64.64
52693;BME280;68218;51.012;-1.648;2023-03-03T08:31:04;101924.97;;;4.30;65.24
52693;BME280;68218;51.012;-1.648;2023-03-03T08:33:30;101922.94;;;4.55;64.53
52693;BME280;68218;51.012;-1.648;2023-03-03T08:35:55;101927.75;;;4.60;63.70
52693;BME280;68218;51.012;-1.648;2023-03-03T08:38:21;101922.31;;;4.83;63.12
52693;BME280;68218;51.012;-1.648;2023-03-03T08:40:47;101928.13;;;4.86;62.76
52693;BME280;68218;51.012;-1.648;2023-03-03T08:43:13;101928.53;;;4.83;61.45
52693;BME280;68218;51.012;-1.648;2023-03-03T08:45:43;101931.00;;;5.00;62.37
52693;BME280;68218;51.012;-1.648;2023-03-03T08:48:09;101930.09;;;5.37;62.14
52693;BME280;68218;51.012;-1.648;2023-03-03T08:50:34;101932.59;;;5.39;61.98
52693;BME280;68218;51.012;-1.648;2023-03-03T08:53:00;101929.81;;;5.32;61.59
52693;BME280;68218;51.012;-1.648;2023-03-03T08:55:25;101927.03;;;5.55;61.51
52693;BME280;68218;51.012;-1.648;2023-03-03T08:57:51;101932.41;;;5.40;61.37
52693;BME280;68218;51.012;-1.648;2023-03-03T09:00:16;101935.53;;;4.99;62.15
52693;BME280;68218;51.012;-1.648;2023-03-03T09:02:43;101935.34;;;5.01;61.88
52693;BME280;68218;51.012;-1.648;2023-03-03T09:05:08;101939.97;;;4.92;63.52
52693;BME280;68218;51.012;-1.648;2023-03-03T09:07:34;101935.53;;;4.99;62.60
52693;BME280;68218;51.012;-1.648;2023-03-03T09:10:00;101934.88;;;4.82;63.06
52693;BME280;68218;51.012;-1.648;2023-03-03T09:12:33;101935.22;;;4.64;62.75
52693;BME280;68218;51.012;-1.648;2023-03-03T09:15:22;101950.66;;;4.92;63.26
52693;BME280;68218;51.012;-1.648;2023-03-03T09:17:49;101939.78;;;4.94;62.88
52693;BME280;68218;51.012;-1.648;2023-03-03T09:22:48;101953.97;;;4.94;62.94
52693;BME280;68218;51.012;-1.648;2023-03-03T09:25:34;101949.81;;;5.06;62.96
52693;BME280;68218;51.012;-1.648;2023-03-03T09:28:01;101948.00;;;5.22;62.03
52693;BME280;68218;51.012;-1.648;2023-03-03T09:30:33;101953.06;;;5.32;61.84
52693;BME280;68218;51.012;-1.648;2023-03-03T09:33:01;101954.34;;;5.06;62.20
52693;BME280;68218;51.012;-1.648;2023-03-03T09:35:39;101953.91;;;5.02;62.60
52693;BME280;68218;51.012;-1.648;2023-03-03T09:38:25;101952.41;;;5.15;61.55
52693;BME280;68218;51.012;-1.648;2023-03-03T09:49:30;101963.41;;;5.20;59.81
52693;BME280;68218;51.012;-1.648;2023-03-03T09:58:12;101959.47;;;5.82;59.52
52693;BME280;68218;51.012;-1.648;2023-03-03T10:06:37;101952.75;;;5.56;60.08
52693;BME280;68218;51.012;-1.648;2023-03-03T10:09:14;101953.53;;;5.35;61.24
52693;BME280;68218;51.012;-1.648;2023-03-03T10:17:36;101961.47;;;5.43;61.67
52693;BME280;68218;51.012;-1.648;2023-03-03T10:23:09;101966.06;;;5.20;62.14
52693;BME280;68218;51.012;-1.648;2023-03-03T10:25:52;101965.69;;;5.08;61.83
52693;BME280;68218;51.012;-1.648;2023-03-03T10:28:49;101973.47;;;5.18;62.42
52693;BME280;68218;51.012;-1.648;2023-03-03T10:39:52;101981.75;;;5.23;61.68
52693;BME280;68218;51.012;-1.648;2023-03-03T10:45:40;101974.84;;;5.29;60.45
52693;BME280;68218;51.012;-1.648;2023-03-03T10:53:33;101990.00;;;5.88;57.87
52693;BME280;68218;51.012;-1.648;2023-03-03T10:56:09;101978.84;;;5.99;57.93
52693;BME280;68218;51.012;-1.648;2023-03-03T11:01:39;101981.81;;;6.26;57.66
52693;BME280;68218;51.012;-1.648;2023-03-03T11:15:21;101977.13;;;6.78;56.99
52693;BME280;68218;51.012;-1.648;2023-03-03T11:20:45;101976.78;;;6.37;58.02
52693;BME280;68218;51.012;-1.648;2023-03-03T11:23:46;101985.13;;;6.71;56.62
52693;BME280;68218;51.012;-1.648;2023-03-03T11:28:54;101993.94;;;6.43;56.56
52693;BME280;68218;51.012;-1.648;2023-03-03T11:31:52;101995.59;;;6.23;57.84
52693;BME280;68218;51.012;-1.648;2023-03-03T11:37:05;102005.34;;;6.30;56.96
52693;BME280;68218;51.012;-1.648;2023-03-03T11:39:33;101998.06;;;6.46;57.79
52693;BME280;68218;51.012;-1.648;2023-03-03T11:44:37;101990.34;;;6.57;57.73
52693;BME280;68218;51.012;-1.648;2023-03-03T11:47:28;102000.13;;;6.65;58.24
52693;BME280;68218;51.012;-1.648;2023-03-03T11:50:31;101994.56;;;6.45;57.67
52693;BME280;68218;51.012;-1.648;2023-03-03T11:56:21;101998.63;;;6.19;58.12
52693;BME280;68218;51.012;-1.648;2023-03-03T11:59:01;101999.53;;;6.05;58.14
52693;BME280;68218;51.012;-1.648;2023-03-03T12:01:35;102000.31;;;6.21;58.22
52693;BME280;68218;51.012;-1.648;2023-03-03T12:04:18;102000.06;;;6.37;58.03
52693;BME280;68218;51.012;-1.648;2023-03-03T12:07:01;101997.31;;;6.30;57.39
52693;BME280;68218;51.012;-1.648;2023-03-03T12:12:15;101994.00;;;6.28;57.82
52693;BME280;68218;51.012;-1.648;2023-03-03T12:20:05;101999.94;;;6.45;58.01
52693;BME280;68218;51.012;-1.648;2023-03-03T12:22:55;101988.00;;;6.26;57.90
52693;BME280;68218;51.012;-1.648;2023-03-03T12:25:40;101995.72;;;6.36;58.14
52693;BME280;68218;51.012;-1.648;2023-03-03T12:31:18;101986.97;;;6.49;58.26
52693;BME280;68218;51.012;-1.648;2023-03-03T12:42:25;101981.16;;;6.02;58.35
52693;BME280;68218;51.012;-1.648;2023-03-03T12:47:34;101972.84;;;6.18;58.42
52693;BME280;68218;51.012;-1.648;2023-03-03T12:50:18;101977.31;;;6.11;58.87
52693;BME280;68218;51.012;-1.648;2023-03-03T12:52:57;101980.06;;;5.81;58.84
52693;BME280;68218;51.012;-1.648;2023-03-03T12:55:47;101980.63;;;5.62;58.99
52693;BME280;68218;51.012;-1.648;2023-03-03T13:04:00;101969.44;;;5.88;58.69
52693;BME280;68218;51.012;-1.648;2023-03-03T13:06:32;101975.09;;;6.15;58.36
52693;BME280;68218;51.012;-1.648;2023-03-03T13:12:01;101969.88;;;6.28;58.27
52693;BME280;68218;51.012;-1.648;2023-03-03T13:19:59;101977.06;;;6.06;58.29
52693;BME280;68218;51.012;-1.648;2023-03-03T13:25:30;101965.22;;;6.15;58.44
52693;BME280;68218;51.012;-1.648;2023-03-03T13:28:01;101961.06;;;6.13;58.48
52693;BME280;68218;51.012;-1.648;2023-03-03T13:30:32;101962.03;;;6.05;58.12
52693;BME280;68218;51.012;-1.648;2023-03-03T13:33:36;101966.28;;;5.99;58.36
52693;BME280;68218;51.012;-1.648;2023-03-03T13:36:09;101968.31;;;5.97;59.48
52693;BME280;68218;51.012;-1.648;2023-03-03T13:38:39;101963.22;;;5.88;58.98
52693;BME280;68218;51.012;-1.648;2023-03-03T13:43:49;101961.94;;;5.84;58.11
52693;BME280;68218;51.012;-1.648;2023-03-03T14:05:25;101949.31;;;5.77;59.25
52693;BME280;68218;51.012;-1.648;2023-03-03T14:08:00;101956.06;;;5.73;58.78
52693;BME280;68218;51.012;-1.648;2023-03-03T14:10:32;101953.13;;;5.53;58.98
52693;BME280;68218;51.012;-1.648;2023-03-03T14:13:08;101957.31;;;5.56;59.10
52693;BME280;68218;51.012;-1.648;2023-03-03T14:15:50;101959.34;;;5.54;59.45
52693;BME280;68218;51.012;-1.648;2023-03-03T14:18:40;101956.84;;;5.37;59.67
52693;BME280;68218;51.012;-1.648;2023-03-03T14:21:18;101952.78;;;5.41;59.51
52693;BME280;68218;51.012;-1.648;2023-03-03T14:24:23;101953.72;;;5.49;59.27
52693;BME280;68218;51.012;-1.648;2023-03-03T14:26:55;101944.28;;;5.53;58.60
52693;BME280;68218;51.012;-1.648;2023-03-03T14:31:46;101936.88;;;5.70;57.97
52693;BME280;68218;51.012;-1.648;2023-03-03T14:34:32;101940.34;;;6.00;57.73
52693;BME280;68218;51.012;-1.648;2023-03-03T14:45:35;101930.97;;;5.74;57.64
52693;BME280;68218;51.012;-1.648;2023-03-03T14:48:24;101921.75;;;5.62;58.85
52693;BME280;68218;51.012;-1.648;2023-03-03T14:50:57;101913.13;;;5.81;58.07
52693;BME280;68218;51.012;-1.648;2023-03-03T14:53:36;101917.06;;;5.86;58.14
52693;BME280;68218;51.012;-1.648;2023-03-03T14:56:21;101910.38;;;5.75;58.46
52693;BME280;68218;51.012;-1.648;2023-03-03T14:58:48;101915.56;;;5.61;58.88
52693;BME280;68218;51.012;-1.648;2023-03-03T15:01:34;101910.41;;;5.60;58.95
52693;BME280;68218;51.012;-1.648;2023-03-03T15:04:23;101905.56;;;5.70;59.30
52693;BME280;68218;51.012;-1.648;2023-03-03T15:06:55;101905.38;;;5.50;59.41
52693;BME280;68218;51.012;-1.648;2023-03-03T15:09:24;101904.94;;;5.68;58.51
52693;BME280;68218;51.012;-1.648;2023-03-03T15:11:56;101902.16;;;5.76;58.25
52693;BME280;68218;51.012;-1.648;2023-03-03T15:14:29;101902.94;;;5.92;57.88
52693;BME280;68218;51.012;-1.648;2023-03-03T15:17:10;101901.44;;;5.89;58.00
52693;BME280;68218;51.012;-1.648;2023-03-03T15:19:49;101898.19;;;5.72;58.46
52693;BME280;68218;51.012;-1.648;2023-03-03T15:25:08;101893.00;;;5.49;58.78
52693;BME280;68218;51.012;-1.648;2023-03-03T15:27:41;101893.72;;;5.58;59.43
52693;BME280;68218;51.012;-1.648;2023-03-03T15:30:24;101893.72;;;5.58;59.22
52693;BME280;68218;51.012;-1.648;2023-03-03T15:35:49;101897.66;;;5.62;59.65
52693;BME280;68218;51.012;-1.648;2023-03-03T15:38:27;101896.22;;;5.44;60.33
52693;BME280;68218;51.012;-1.648;2023-03-03T15:41:18;101899.25;;;5.41;61.00
52693;BME280;68218;51.012;-1.648;2023-03-03T15:43:58;101900.03;;;5.35;61.17
52693;BME280;68218;51.012;-1.648;2023-03-03T15:46:27;101900.75;;;5.44;61.86
52693;BME280;68218;51.012;-1.648;2023-03-03T15:51:59;101902.06;;;5.33;62.74
52693;BME280;68218;51.012;-1.648;2023-03-03T15:54:41;101898.63;;;5.39;62.63
52693;BME280;68218;51.012;-1.648;2023-03-03T16:03:10;101901.16;;;5.26;63.54
52693;BME280;68218;51.012;-1.648;2023-03-03T16:05:48;101901.53;;;5.23;63.11
52693;BME280;68218;51.012;-1.648;2023-03-03T16:11:08;101898.72;;;5.31;62.61
52693;BME280;68218;51.012;-1.648;2023-03-03T16:13:55;101904.66;;;5.27;62.74
52693;BME280;68218;51.012;-1.648;2023-03-03T16:30:02;101916.66;;;5.16;64.10
52693;BME280;68218;51.012;-1.648;2023-03-03T16:32:40;101919.50;;;5.14;63.17
52693;BME280;68218;51.012;-1.648;2023-03-03T16:35:22;101915.34;;;5.12;63.90
52693;BME280;68218;51.012;-1.648;2023-03-03T16:38:00;101921.72;;;5.11;64.42
52693;BME280;68218;51.012;-1.648;2023-03-03T16:40:38;101925.75;;;5.06;64.47